Station: Robe Airport  

  Atmospheric Gas Attenuation - ITU Rec 676-11   ----------------- dB/100km -----------------
Date Time Temp RH % AH g/m3 Dew Point Wind Direction Speed kph Gust kph Barometer mB Rainfall Since 9am 24GHz 47GHz 76GHz 122GHz 134GHz 241GHz
08/05 18:20 13.6 93 10.95 12.5 17 20 1028.7 0.2 24.6 30.6 50.6 133.0 132.7 458.3
08/05 18:10 13.8 92 10.96 12.6 11 13 1028.6 0.2 24.6 30.5 50.5 132.7 132.5 457.6
08/05 18:00 13.7 93 11.01 12.6 9 11 1028.5 0.2 24.7 30.6 50.8 133.5 133.4 460.7
08/05 17:50 13.7 92 10.89 12.5 11 11 1028.6 0.2 24.5 30.4 50.2 132.1 131.7 454.6
08/05 17:40 13.7 92 10.89 12.4 9 11 1028.5 0.2 24.5 30.4 50.2 132.1 131.7 454.6
08/05 17:30 13.9 91 10.91 12.5 20 28 1028.5 0.2 24.5 30.4 50.2 132.0 131.6 454.4
08/05 17:20 13.8 92 10.96 12.5 13 17 1028.4 0.2 24.6 30.5 50.5 132.7 132.5 457.5
08/05 17:10 13.7 91 10.78 12.2 9 13 1028.3 0.2 24.2 30.2 49.7 130.7 130.0 449.0
08/05 17:00 13.8 91 10.84 12.4 19 28 1028.3 0.2 24.4 30.3 49.9 131.3 130.7 451.4
08/05 16:50 14 89 10.74 12.3 13 15 1028.2 0.2 24.1 30.0 49.4 129.8 129.0 445.2
08/05 16:40 13.9 89 10.67 12.1 15 19 1028.2 0.2 24.0 29.9 49.1 129.1 128.1 442.3
08/05 16:30 14.4 87 10.75 12.3 24 35 1028.2 0.2 24.1 29.9 49.2 129.2 128.4 443.4
08/05 16:20 14.3 88 10.81 12.3 19 26 1028.2 0.2 24.3 30.0 49.5 130.1 129.4 447.0
08/05 16:10 14 89 10.74 12.2 15 17 1028.2 0.2 24.1 30.0 49.4 129.8 129.0 445.2
08/05 16:00 14.1 89 10.8 12.3 20 32 1028.3 0.2 24.3 30.1 49.6 130.3 129.7 447.6
08/05 15:50 14.6 85 10.64 12.1 28 33 1028.1 0.2 23.9 29.6 48.6 127.6 126.5 436.8
08/05 15:40 14.5 85 10.57 12.1 13 15 1028.1 0.2 23.7 29.6 48.3 127.0 125.7 433.8
08/05 15:30 14.6 86 10.76 12.3 19 30 1028.1 0.2 24.1 29.8 49.1 129.0 128.2 442.7
08/05 15:20 15.3 79 10.32 11.8 17 20 1027.9 0 23.2 28.8 46.7 122.8 120.9 417.2
08/05 15:10 15.2 78 10.12 11.5 19 24 1027.9 0 22.7 28.5 46.0 120.7 118.3 408.0
08/05 15:00 15.8 75 10.1 11.4 20 30 1027.8 0 22.7 28.3 45.5 119.6 117.1 403.9
08/05 14:50 16 80 10.9 12.5 24 28 1027.8 0 24.4 29.6 48.8 128.2 127.8 441.5
08/05 14:40 14.9 87 11.09 12.7 15 20 1027.8 0 24.8 30.3 50.3 132.3 132.4 457.3
08/05 14:30 14.5 88 10.95 12.5 15 20 1027.8 0 24.6 30.2 49.9 131.3 131.1 452.7
08/05 14:20 14.5 85 10.57 12 20 26 1027.9 0 23.7 29.5 48.3 126.9 125.7 433.8
08/05 14:10 14.5 85 10.57 12.1 17 22 1027.8 0 23.7 29.5 48.3 126.9 125.7 433.7
08/05 14:00 14.6 86 10.76 12.3 20 28 1027.8 0 24.1 29.8 49.1 128.9 128.2 442.6
08/05 13:50 15 85 10.9 12.6 20 24 1027.8 0 24.4 29.9 49.4 129.9 129.5 447.3
08/05 13:40 14.6 87 10.89 12.4 22 24 1027.9 0 24.4 30.1 49.6 130.5 130.0 449.1
08/05 13:30 14.4 86 10.63 12.1 19 32 1028 0 23.9 29.7 48.6 127.8 126.7 437.4
08/05 13:20 14.2 88 10.75 12.2 20 24 1028.1 0 24.1 30.0 49.3 129.5 128.7 444.5
08/05 13:10 14.4 88 10.88 12.4 22 26 1028.2 0 24.4 30.1 49.7 130.7 130.3 449.9
08/05 13:00 14.7 83 10.45 11.8 20 30 1028.3 0 23.5 29.3 47.7 125.3 123.7 426.9
08/05 12:50 14.9 79 10.07 11.3 20 24 1028.3 0 22.6 28.6 45.9 120.7 118.1 407.3
08/05 12:40 14.9 79 10.07 11.3 22 26 1028.4 0 22.6 28.6 46.0 120.7 118.1 407.3
08/05 12:30 14.9 80 10.2 11.5 24 33 1028.4 0 22.9 28.8 46.5 122.1 119.9 413.6
08/05 12:20 15 78 10 11.2 26 30 1028.4 0 22.5 28.4 45.6 119.7 117.0 403.4
08/05 12:10 15.1 76 9.8 10.9 19 28 1028.6 0 22.1 28.1 44.7 117.4 114.1 393.4
08/05 12:00 15.1 77 9.93 11.1 19 30 1028.7 0 22.3 28.3 45.3 118.8 115.9 399.6
08/05 11:50 15 77 9.87 11 22 26 1028.7 0 22.2 28.2 45.1 118.3 115.2 397.3
08/05 11:40 14.9 76 9.69 10.7 22 28 1028.8 0 21.8 27.9 44.4 116.5 112.9 389.2
08/05 11:30 15.2 75 9.73 10.8 20 30 1028.8 0 21.9 27.9 44.4 116.5 113.0 389.6
08/05 11:20 15.2 73 9.48 10.4 15 22 1028.8 0 21.4 27.5 43.3 113.7 109.6 377.7
08/05 11:10 15 75 9.62 10.6 24 32 1028.8 0 21.7 27.8 44.0 115.6 111.8 385.3
08/05 11:00 15.5 76 10.05 11.3 24 30 1028.7 0 22.6 28.4 45.5 119.6 116.9 403.3
08/05 10:50 15 76 9.75 10.8 24 32 1028.7 0 22.0 28.0 44.6 117.0 113.6 391.5
08/05 10:40 15.2 76 9.86 11 17 24 1028.7 0 22.2 28.1 44.9 117.9 114.8 395.8
08/05 10:30 14.9 77 9.81 10.9 24 33 1028.9 0 22.1 28.2 44.9 117.8 114.5 394.9
08/05 10:20 15 79 10.13 11.4 22 28 1028.8 0 22.8 28.7 46.2 121.2 118.8 409.8
08/05 10:10 15.5 70 9.25 10 19 20 1028.6 0 20.9 27.0 42.2 110.8 106.1 365.4
08/05 10:00 15.6 74 9.84 11 24 33 1028.7 0 22.1 28.0 44.6 117.1 113.9 392.8
08/05 09:50 15.2 78 10.12 11.4 26 28 1028.7 0 22.7 28.6 46.0 120.8 118.3 408.3
08/05 09:40 15.4 77 10.12 11.5 19 24 1028.7 0 22.7 28.5 45.9 120.5 118.0 407.2
08/05 09:30 14.6 82 10.26 11.6 28 41 1028.8 0 23.1 29.0 47.0 123.3 121.2 418.3
08/05 09:20 14.8 79 10.01 11.3 30 39 1028.9 0 22.5 28.5 45.8 120.2 117.4 405.1
08/05 09:10 14.9 80 10.2 11.6 20 26 1028.8 0 22.9 28.8 46.5 122.2 119.9 413.8
08/05 09:00 14.4 84 10.38 11.7 24 33 1028.9 0 23.3 29.3 47.6 125.0 123.2 425.3
08/05 08:50 14.7 79 9.95 11.1 30 33 1028.8 0.4 22.4 28.5 45.6 119.7 116.8 402.7
08/05 08:40 14.9 75 9.56 10.5 20 22 1028.5 0.4 21.6 27.7 43.8 115.0 111.1 382.9
08/05 08:30 14.6 79 9.89 11 20 35 1028.4 0.4 22.3 28.4 45.4 119.1 116.0 400.2
08/05 08:20 13.9 83 9.95 11 24 30 1028.4 0.4 22.4 28.7 46.0 120.9 117.9 406.7
08/05 08:10 14 83 10.01 11.1 30 41 1028.4 0.4 22.6 28.8 46.2 121.4 118.6 409.1
08/05 08:00 14.9 79 10.07 11.3 20 28 1028.1 0.4 22.6 28.6 45.9 120.6 118.1 407.2
08/05 07:50 14.3 77 9.46 10.3 24 30 1028 0.4 21.4 27.7 43.7 114.7 110.5 380.9
08/05 07:40 14.2 80 9.77 10.9 24 32 1027.8 0.4 22.0 28.3 45.1 118.3 114.9 396.2
08/05 07:30 14.2 80 9.77 10.8 24 37 1027.7 0.4 22.0 28.3 45.1 118.3 114.9 396.2
08/05 07:20 14.2 83 10.14 11.3 22 28 1027.7 0.4 22.8 28.9 46.6 122.5 120.1 414.2
08/05 07:10 14 84 10.13 11.3 19 26 1027.5 0.4 22.8 28.9 46.7 122.7 120.2 414.7
08/05 07:00 14.2 84 10.26 11.5 20 37 1027.4 0.4 23.1 29.1 47.1 123.8 121.7 420.0
08/05 06:50 13.7 82 9.71 10.8 19 24 1027.3 0.4 21.9 28.3 45.1 118.3 114.8 395.7
08/05 06:40 13.7 85 10.07 11.2 26 32 1027.2 0.4 22.7 28.9 46.6 122.4 119.8 413.3
08/05 06:30 13.9 87 10.43 11.8 19 30 1027.1 0.4 23.5 29.5 48.0 126.2 124.6 429.9
08/05 06:20 13.8 86 10.25 11.5 22 26 1027.1 0.4 23.1 29.2 47.3 124.3 122.2 421.6
08/05 06:10 14 81 9.77 10.8 24 32 1027.1 0.4 22.1 28.3 45.1 118.5 115.2 397.0
08/05 06:00 13.7 89 10.54 11.9 19 28 1027 0.4 23.7 29.7 48.6 127.8 126.5 436.5
08/05 05:50 13.7 89 10.54 11.9 28 35 1027 0.4 23.7 29.7 48.6 127.8 126.5 436.5
08/05 05:40 13.9 86 10.31 11.6 24 32 1027.1 0.4 23.2 29.3 47.5 124.8 122.9 424.0
08/05 05:30 13.6 87 10.24 11.5 24 37 1026.8 0.4 23.1 29.2 47.4 124.5 122.3 422.1
08/05 05:20 13.4 91 10.58 11.9 30 33 1026.8 0.4 23.8 29.9 49.0 128.7 127.5 440.1
08/05 05:10 13.6 91 10.71 12.1 22 32 1026.9 0.4 24.1 30.1 49.4 129.9 129.1 445.5
08/05 05:00 13.4 90 10.46 11.8 22 37 1026.8 0.4 23.6 29.7 48.5 127.3 125.8 434.1
08/05 04:50 13.5 89 10.41 11.7 32 37 1026.8 0.4 23.5 29.6 48.2 126.6 124.9 431.1
08/05 04:40 14 86 10.37 11.7 26 39 1026.7 0.4 23.3 29.3 47.7 125.3 123.5 426.3
08/05 04:30 13.8 86 10.25 11.5 22 37 1026.6 0.4 23.1 29.2 47.3 124.2 122.1 421.4
08/05 04:20 14 86 10.37 11.7 20 26 1026.7 0.4 23.3 29.3 47.7 125.3 123.5 426.3
08/05 04:10 14.4 81 10.01 11.3 22 32 1026.6 0.4 22.6 28.6 45.9 120.6 117.8 406.4
08/05 04:00 14 83 10.01 11.2 19 32 1026.6 0.4 22.6 28.7 46.1 121.2 118.5 408.5
08/05 03:50 13.8 84 10.01 11.1 22 33 1026.6 0.4 22.6 28.8 46.3 121.5 118.8 409.6
08/05 03:40 14 84 10.13 11.3 17 22 1026.6 0.4 22.8 28.9 46.7 122.5 120.1 414.4
08/05 03:30 14.1 81 9.83 10.9 19 32 1026.4 0.4 22.2 28.3 45.3 119.0 115.8 399.2
08/05 03:20 13.8 83 9.89 10.9 17 20 1026.5 0.4 22.3 28.5 45.7 120.1 117.1 403.7
08/05 03:10 13.7 84 9.95 11 19 26 1026.7 0.4 22.5 28.7 46.1 121.0 118.1 407.2
08/05 03:00 13.4 85 9.88 10.9 22 35 1026.7 0.4 22.3 28.7 45.9 120.6 117.6 405.4
08/05 02:50 13.3 89 10.28 11.5 19 26 1026.7 0.4 23.2 29.4 47.7 125.4 123.4 425.7
08/05 02:40 13.7 89 10.54 11.9 22 28 1026.7 0.2 23.7 29.7 48.6 127.8 126.4 436.4
08/05 02:30 13.8 85 10.13 11.3 20 32 1026.8 0.2 22.8 29.0 46.8 122.9 120.5 415.6
08/05 02:20 14 80 9.65 10.6 24 32 1026.8 0.2 21.8 28.1 44.6 117.1 113.5 391.1
08/05 02:10 13.6 81 9.53 10.4 17 20 1026.9 0.2 21.6 28.0 44.4 116.4 112.4 387.4
08/05 02:00 13.4 88 10.23 11.5 15 26 1026.9 0.2 23.1 29.3 47.5 124.7 122.5 422.7
08/05 01:50 13.6 88 10.36 11.6 15 19 1026.9 0.2 23.3 29.4 47.9 125.9 124.1 428.0

Last Refresh: 08-May-2026 18:29:18

Bureau of Meteorology